createdAt,value
2019-03-13T00:01:32.389Z,16.60
2019-03-13T00:04:02.822Z,21.67
2019-03-13T00:06:33.341Z,18.07
2019-03-13T00:09:04.681Z,18.30
2019-03-13T00:11:35.118Z,20.63
2019-03-13T00:14:05.960Z,18.30
2019-03-13T00:16:36.569Z,16.87
2019-03-13T00:19:07.001Z,24.13
2019-03-13T00:21:37.482Z,11.73
2019-03-13T00:24:08.366Z,23.37
2019-03-13T00:26:38.898Z,19.53
2019-03-13T00:29:09.323Z,14.37
2019-03-13T00:31:39.763Z,17.67
2019-03-13T00:34:10.276Z,9.53
2019-03-13T00:36:40.710Z,18.77
2019-03-13T00:39:11.138Z,14.10
2019-03-13T00:41:41.561Z,12.47
2019-03-13T00:44:11.989Z,19.83
2019-03-13T00:46:42.414Z,13.33
2019-03-13T00:49:12.842Z,17.57
2019-03-13T00:51:43.280Z,12.93
2019-03-13T00:54:13.693Z,15.50
2019-03-13T00:56:44.181Z,13.90
2019-03-13T00:59:14.655Z,12.63
2019-03-13T01:01:59.314Z,14.07
2019-03-13T01:04:43.258Z,7.20
2019-03-13T01:07:13.889Z,16.93
2019-03-13T01:09:44.317Z,18.83
2019-03-13T01:12:14.745Z,14.20
2019-03-13T01:14:45.377Z,11.40
2019-03-13T01:17:15.967Z,17.17
2019-03-13T01:19:46.433Z,16.97
2019-03-13T01:22:16.860Z,16.30
2019-03-13T01:24:47.273Z,20.90
2019-03-13T01:27:17.931Z,16.17
2019-03-13T01:29:48.450Z,13.67
2019-03-13T01:32:36.500Z,16.77
2019-03-13T01:35:16.438Z,11.97
2019-03-13T01:37:54.158Z,26.87
2019-03-13T01:40:24.884Z,10.03
2019-03-13T01:42:55.517Z,16.37
2019-03-13T01:45:25.931Z,12.07
2019-03-13T01:47:56.353Z,8.60
2019-03-13T01:50:26.785Z,12.47
2019-03-13T01:52:57.210Z,14.63
2019-03-13T01:55:27.638Z,9.90
2019-03-13T01:57:58.118Z,13.90
2019-03-13T02:00:28.870Z,13.57
2019-03-13T02:02:59.340Z,9.20
2019-03-13T02:05:29.754Z,17.70
2019-03-13T02:08:00.297Z,20.47
2019-03-13T02:10:30.933Z,18.00
2019-03-13T02:13:01.559Z,14.93
2019-03-13T02:15:32.089Z,16.10
2019-03-13T02:18:02.605Z,16.73
2019-03-13T02:20:33.954Z,10.30
2019-03-13T02:23:04.392Z,23.10
2019-03-13T02:25:34.810Z,19.17
2019-03-13T02:28:05.238Z,20.40
2019-03-13T02:30:35.717Z,20.67
2019-03-13T02:33:06.205Z,12.03
2019-03-13T02:35:37.847Z,15.73
2019-03-13T02:38:08.276Z,12.67
2019-03-13T02:40:38.704Z,9.77
2019-03-13T02:43:09.132Z,6.87
2019-03-13T02:45:39.568Z,9.53
2019-03-13T02:48:09.988Z,11.10
2019-03-13T02:50:40.420Z,10.07
2019-03-13T02:53:10.840Z,9.63
2019-03-13T02:55:41.267Z,9.47
2019-03-13T02:58:11.713Z,7.40
2019-03-13T03:00:55.279Z,11.70
2019-03-13T03:03:32.331Z,12.53
2019-03-13T03:06:02.849Z,14.87
2019-03-13T03:08:33.394Z,8.67
2019-03-13T03:11:03.795Z,8.80
2019-03-13T03:13:34.221Z,16.53
2019-03-13T03:16:04.806Z,15.43
2019-03-13T03:18:35.281Z,16.63
2019-03-13T03:21:05.706Z,14.07
2019-03-13T03:23:36.133Z,17.20
2019-03-13T03:26:06.644Z,12.53
2019-03-13T03:28:37.092Z,19.70
2019-03-13T03:31:07.581Z,12.90
2019-03-13T03:33:38.058Z,18.37
2019-03-13T03:36:08.793Z,12.23
2019-03-13T03:38:39.429Z,22.53
2019-03-13T03:41:09.841Z,26.97
2019-03-13T03:43:41.188Z,21.50
2019-03-13T03:46:11.728Z,19.20
2019-03-13T03:48:42.155Z,21.10
2019-03-13T03:51:12.590Z,34.17
2019-03-13T03:53:42.986Z,13.47
2019-03-13T03:56:13.643Z,10.43
2019-03-13T03:58:44.067Z,20.30
2019-03-13T04:01:14.486Z,16.03
2019-03-13T04:03:44.933Z,19.57
2019-03-13T04:06:16.773Z,28.03
2019-03-13T04:08:47.303Z,19.17
2019-03-13T04:11:17.829Z,23.17
2019-03-13T04:13:48.271Z,18.97
2019-03-13T04:16:18.804Z,24.37
2019-03-13T04:18:49.321Z,22.93
2019-03-13T04:21:19.747Z,20.63
2019-03-13T04:23:50.172Z,19.07
2019-03-13T04:26:20.623Z,23.27
2019-03-13T04:28:51.027Z,20.80
2019-03-13T04:31:21.439Z,24.60
2019-03-13T04:33:51.948Z,20.33
2019-03-13T04:36:22.407Z,22.23
2019-03-13T04:38:52.848Z,19.00
2019-03-13T04:41:23.262Z,19.70
2019-03-13T04:43:53.689Z,18.30
2019-03-13T04:46:24.116Z,22.10
2019-03-13T04:48:54.540Z,22.37
2019-03-13T04:51:24.970Z,24.43
2019-03-13T04:53:55.397Z,19.67
2019-03-13T04:56:25.821Z,13.30
2019-03-13T04:58:56.250Z,17.57
2019-03-13T05:01:26.689Z,20.53
2019-03-13T05:03:57.106Z,15.27
2019-03-13T05:06:27.565Z,23.40
2019-03-13T05:09:03.653Z,21.67
2019-03-13T05:11:34.120Z,25.47
2019-03-13T05:14:04.548Z,21.80
2019-03-13T05:16:35.091Z,22.67
2019-03-13T05:19:05.606Z,24.73
2019-03-13T05:21:36.033Z,28.00
2019-03-13T05:24:06.462Z,28.00
2019-03-13T05:26:36.898Z,18.97
2019-03-13T05:29:07.313Z,29.27
2019-03-13T05:31:37.742Z,21.90
2019-03-13T05:34:08.169Z,21.20
2019-03-13T05:36:38.709Z,30.30
2019-03-13T05:39:09.537Z,21.07
2019-03-13T05:41:39.962Z,24.57
2019-03-13T05:44:10.390Z,24.20
2019-03-13T05:46:40.813Z,23.67
2019-03-13T05:49:11.462Z,26.90
2019-03-13T05:51:42.076Z,20.50
2019-03-13T05:54:12.506Z,26.33
2019-03-13T05:56:42.933Z,25.77
2019-03-13T05:59:13.358Z,27.37
2019-03-13T06:01:44.004Z,21.33
2019-03-13T06:04:14.627Z,19.20
2019-03-13T06:06:45.267Z,20.50
2019-03-13T06:09:15.795Z,18.80
2019-03-13T06:11:46.430Z,23.47
2019-03-13T06:14:16.854Z,23.67
2019-03-13T06:16:47.330Z,17.80
2019-03-13T06:19:18.591Z,17.70
2019-03-13T06:21:49.044Z,20.97
2019-03-13T06:24:19.474Z,21.67
2019-03-13T06:26:49.898Z,19.13
2019-03-13T06:29:20.327Z,14.13
2019-03-13T06:31:50.754Z,14.63
2019-03-13T06:34:21.182Z,25.43
2019-03-13T06:36:51.618Z,17.47
2019-03-13T06:39:22.154Z,19.03
2019-03-13T06:41:52.685Z,8.77
2019-03-13T06:44:23.193Z,14.00
2019-03-13T06:46:53.633Z,14.47
2019-03-13T06:49:25.288Z,17.47
2019-03-13T06:51:55.719Z,13.93
2019-03-13T06:54:26.133Z,17.10
2019-03-13T06:56:56.557Z,20.77
2019-03-13T06:59:34.985Z,18.77
2019-03-13T07:02:19.032Z,21.27
2019-03-13T07:05:02.572Z,15.37
2019-03-13T07:07:49.276Z,19.20
2019-03-13T07:10:44.790Z,12.33
2019-03-13T07:13:37.143Z,17.00
2019-03-13T07:16:29.573Z,14.13
2019-03-13T07:19:17.717Z,18.90
2019-03-13T07:22:05.961Z,10.50
2019-03-13T07:25:10.386Z,21.23
2019-03-13T07:28:17.780Z,23.07
2019-03-13T07:31:02.425Z,16.13
2019-03-13T07:34:00.413Z,20.77
2019-03-13T07:36:49.785Z,26.07
2019-03-13T07:39:51.446Z,16.03
2019-03-13T07:42:50.849Z,23.43
2019-03-13T07:45:49.132Z,23.23
2019-03-13T07:48:44.441Z,23.93
2019-03-13T07:51:32.685Z,21.47
2019-03-13T07:54:31.275Z,23.97
2019-03-13T07:57:20.542Z,31.80
2019-03-13T08:00:03.868Z,24.70
2019-03-13T08:02:55.908Z,25.37
2019-03-13T08:05:51.319Z,23.97
2019-03-13T08:08:46.730Z,30.77
2019-03-13T08:11:54.639Z,31.80
2019-03-13T08:14:55.884Z,22.83
2019-03-13T08:17:36.460Z,22.30
2019-03-13T08:20:29.609Z,17.07
2019-03-13T08:23:19.084Z,21.00
2019-03-13T08:26:11.635Z,23.23
2019-03-13T08:29:08.378Z,22.40
2019-03-13T08:31:54.659Z,25.17
2019-03-13T08:34:35.738Z,19.90
2019-03-13T08:37:41.965Z,18.10
2019-03-13T08:40:27.692Z,35.13
2019-03-13T08:43:24.039Z,19.43
2019-03-13T08:46:10.730Z,27.60
2019-03-13T08:48:53.868Z,17.93
2019-03-13T08:51:42.115Z,16.00
2019-03-13T08:54:34.659Z,23.27
2019-03-13T08:57:24.030Z,18.27
2019-03-13T09:00:22.412Z,30.17
2019-03-13T09:03:11.783Z,19.83
2019-03-13T09:05:58.280Z,20.70
2019-03-13T09:08:42.334Z,24.37
2019-03-13T09:11:37.644Z,26.87
2019-03-13T09:14:27.014Z,13.20
2019-03-13T09:17:16.477Z,18.40
2019-03-13T09:20:02.161Z,18.23
2019-03-13T09:22:43.410Z,20.87
2019-03-13T09:25:35.694Z,20.80
2019-03-13T09:28:18.509Z,19.30
2019-03-13T09:31:06.655Z,21.50
2019-03-13T09:33:58.891Z,20.80
2019-03-13T09:36:39.750Z,22.13
2019-03-13T09:39:23.912Z,21.77
2019-03-13T09:42:09.601Z,15.60
2019-03-13T09:45:08.087Z,26.03
2019-03-13T09:47:45.576Z,16.93
2019-03-13T09:50:24.913Z,20.13
2019-03-13T09:53:02.524Z,19.33
2019-03-13T09:55:55.870Z,22.80
2019-03-13T09:58:48.009Z,20.00
2019-03-13T10:01:25.807Z,18.50
2019-03-13T10:04:02.374Z,49.30
2019-03-13T10:06:49.291Z,24.63
2019-03-13T10:09:44.499Z,26.57
2019-03-13T10:12:26.291Z,20.00
2019-03-13T10:15:02.249Z,17.60
2019-03-13T10:18:04.011Z,18.63
2019-03-13T10:20:42.210Z,18.97
2019-03-13T10:23:40.807Z,23.60
2019-03-13T10:26:30.178Z,16.33
2019-03-13T10:29:25.489Z,20.23
2019-03-13T10:32:03.699Z,22.17
2019-03-13T10:34:44.161Z,17.70
2019-03-13T10:37:37.954Z,20.80
2019-03-13T10:40:26.792Z,25.77
2019-03-13T10:43:06.673Z,17.43
2019-03-13T10:45:59.382Z,18.17
2019-03-13T10:48:39.239Z,13.87
2019-03-13T10:51:23.890Z,15.83
2019-03-13T10:54:25.664Z,9.63
2019-03-13T10:57:17.799Z,14.43
2019-03-13T11:00:13.211Z,10.97
2019-03-13T11:03:08.625Z,14.93
2019-03-13T11:06:07.214Z,15.97
2019-03-13T11:08:55.149Z,11.15
2019-03-13T11:11:40.818Z,11.60
2019-03-13T11:14:27.546Z,17.62
2019-03-13T11:17:14.649Z,19.98
2019-03-13T11:20:11.363Z,14.15
2019-03-13T11:23:03.524Z,15.37
2019-03-13T11:25:52.911Z,21.47
2019-03-13T11:28:38.287Z,18.33
2019-03-13T11:31:30.635Z,15.53
2019-03-13T11:34:18.874Z,18.03
2019-03-13T11:37:06.710Z,21.42
2019-03-13T11:39:48.803Z,18.02
2019-03-13T11:42:42.366Z,17.70
2019-03-13T11:45:27.129Z,23.45
2019-03-13T11:48:16.000Z,21.73
2019-03-13T11:51:08.563Z,22.37
2019-03-13T11:54:10.514Z,17.27
2019-03-13T11:56:57.944Z,21.00
2019-03-13T11:59:47.311Z,16.90
2019-03-13T12:02:26.852Z,15.07
2019-03-13T12:05:04.336Z,16.57
2019-03-13T12:07:47.561Z,18.40
2019-03-13T12:10:37.149Z,17.77
2019-03-13T12:13:14.835Z,17.33
2019-03-13T12:16:07.187Z,13.67
2019-03-13T12:19:02.802Z,15.80
2019-03-13T12:21:52.379Z,13.33
2019-03-13T12:24:37.862Z,19.37
2019-03-13T12:27:33.122Z,22.13
2019-03-13T12:30:28.992Z,15.47
2019-03-13T12:33:18.363Z,13.97
2019-03-13T12:36:06.606Z,18.10
2019-03-13T12:38:54.751Z,14.70
2019-03-13T12:41:50.162Z,16.33
2019-03-13T12:44:39.533Z,18.17
2019-03-13T12:47:20.610Z,19.00
2019-03-13T12:50:25.034Z,17.40
2019-03-13T12:53:20.242Z,12.73
2019-03-13T12:56:24.974Z,13.35
2019-03-13T12:59:12.094Z,12.85
2019-03-13T13:01:48.973Z,11.57
2019-03-13T13:04:36.907Z,16.47
2019-03-13T13:07:29.145Z,12.80
2019-03-13T13:10:16.264Z,12.53
2019-03-13T13:13:04.204Z,12.70
2019-03-13T13:16:05.656Z,12.17
2019-03-13T13:19:00.864Z,18.17
2019-03-13T13:21:31.500Z,14.55
2019-03-13T13:24:02.026Z,13.98
2019-03-13T13:26:32.442Z,14.73
2019-03-13T13:29:04.006Z,13.80
2019-03-13T13:31:34.422Z,11.47
2019-03-13T13:34:04.861Z,12.47
2019-03-13T13:36:35.273Z,14.85
2019-03-13T13:39:08.841Z,13.65
2019-03-13T13:41:39.317Z,12.55
2019-03-13T13:44:09.729Z,10.58
2019-03-13T13:46:44.284Z,13.32
2019-03-13T13:49:13.770Z,11.63
2019-03-13T13:51:44.186Z,11.28
2019-03-13T13:54:16.021Z,12.30
2019-03-13T13:56:46.482Z,15.95
2019-03-13T13:59:16.900Z,14.20
2019-03-13T14:01:47.635Z,12.67
2019-03-13T14:04:18.061Z,10.87
2019-03-13T14:06:48.603Z,9.93
2019-03-13T14:09:19.014Z,14.83
2019-03-13T14:11:49.445Z,10.93
2019-03-13T14:14:19.880Z,18.27
2019-03-13T14:16:50.298Z,20.17
2019-03-13T14:19:20.726Z,16.77
2019-03-13T14:21:52.393Z,14.17
2019-03-13T14:24:22.866Z,15.73
2019-03-13T14:26:53.352Z,14.80
2019-03-13T14:29:23.767Z,14.47
2019-03-13T14:31:54.190Z,13.93
2019-03-13T14:34:24.631Z,16.90
2019-03-13T14:36:55.046Z,12.57
2019-03-13T14:39:26.919Z,14.77
2019-03-13T14:41:57.550Z,12.70
2019-03-13T14:44:28.184Z,15.23
2019-03-13T14:46:58.708Z,13.87
2019-03-13T14:49:30.352Z,17.17
2019-03-13T14:52:00.782Z,12.13
2019-03-13T14:54:32.334Z,16.67
2019-03-13T14:57:02.811Z,16.73
2019-03-13T14:59:33.395Z,16.93
2019-03-13T15:02:03.822Z,16.90
2019-03-13T15:04:34.250Z,19.00
2019-03-13T15:07:04.674Z,19.20
2019-03-13T15:09:35.111Z,17.70
2019-03-13T15:12:07.384Z,13.53
2019-03-13T15:14:37.810Z,12.67
2019-03-13T15:17:08.225Z,15.67
2019-03-13T15:19:38.664Z,14.37
2019-03-13T15:22:09.849Z,13.13
2019-03-13T15:24:40.325Z,17.83
2019-03-13T15:27:10.977Z,12.93
2019-03-13T15:29:41.382Z,12.17
2019-03-13T15:32:11.810Z,15.90
2019-03-13T15:34:42.237Z,14.30
2019-03-13T15:37:13.896Z,16.63
2019-03-13T15:39:44.324Z,13.80
2019-03-13T15:42:14.745Z,14.40
2019-03-13T15:44:45.290Z,17.67
2019-03-13T15:47:15.701Z,15.33
2019-03-13T15:49:46.142Z,15.40
2019-03-13T15:52:16.560Z,14.50
2019-03-13T15:54:46.986Z,10.80
2019-03-13T15:57:18.531Z,14.03
2019-03-13T15:59:49.226Z,13.57
2019-03-13T16:02:19.697Z,11.87
2019-03-13T16:04:50.156Z,15.37
2019-03-13T16:07:21.997Z,12.43
2019-03-13T16:09:52.430Z,16.03
2019-03-13T16:12:23.983Z,13.33
2019-03-13T16:14:54.419Z,17.23
2019-03-13T16:17:26.357Z,15.20
2019-03-13T16:19:58.083Z,20.47
2019-03-13T16:22:28.762Z,16.57
2019-03-13T16:24:59.206Z,22.43
2019-03-13T16:27:29.601Z,17.77
2019-03-13T16:30:00.409Z,16.97
2019-03-13T16:32:43.339Z,13.50
2019-03-13T16:35:03.036Z,10.70
2019-03-13T16:37:33.470Z,10.90
2019-03-13T16:40:03.989Z,9.87
2019-03-13T16:42:34.427Z,11.13
2019-03-13T16:45:05.312Z,13.27
2019-03-13T16:47:35.998Z,11.60
2019-03-13T16:50:08.064Z,14.67
2019-03-13T16:52:38.490Z,14.43
2019-03-13T16:55:10.853Z,17.53
2019-03-13T16:57:41.277Z,17.97
2019-03-13T17:00:18.089Z,10.70
2019-03-13T17:02:48.608Z,20.83
2019-03-13T17:05:19.645Z,18.17
2019-03-13T17:07:50.451Z,18.80
2019-03-13T17:10:21.278Z,17.27
2019-03-13T17:12:52.106Z,25.47
2019-03-13T17:15:23.156Z,18.30
2019-03-13T17:17:53.800Z,19.97
2019-03-13T17:20:26.382Z,22.37
2019-03-13T17:22:57.586Z,18.90
2019-03-13T17:25:28.058Z,21.27
2019-03-13T17:27:58.597Z,26.17
2019-03-13T17:30:29.294Z,24.37
2019-03-13T17:32:59.972Z,23.63
2019-03-13T17:35:30.883Z,18.63
2019-03-13T17:38:01.318Z,26.67
2019-03-13T17:40:31.754Z,27.30
2019-03-13T17:43:02.190Z,23.60
2019-03-13T17:45:32.717Z,23.23
2019-03-13T17:48:03.316Z,26.77
2019-03-13T17:50:33.979Z,20.87
2019-03-13T17:53:05.428Z,29.97
2019-03-13T17:55:35.842Z,29.10
2019-03-13T17:58:06.283Z,26.33
2019-03-13T18:00:42.945Z,20.20
2019-03-13T18:03:13.383Z,27.07
2019-03-13T18:05:43.849Z,24.53
2019-03-13T18:08:14.329Z,30.10
2019-03-13T18:10:44.859Z,29.90
2019-03-13T18:13:15.285Z,30.20
2019-03-13T18:15:46.941Z,28.77
2019-03-13T18:18:17.366Z,31.33
2019-03-13T18:21:36.038Z,35.73
2019-03-13T18:24:06.774Z,26.77
2019-03-13T18:26:37.185Z,33.23
2019-03-13T18:29:07.726Z,29.17
2019-03-13T18:31:58.634Z,34.37
2019-03-13T18:34:30.187Z,31.70
2019-03-13T18:37:00.833Z,29.40
2019-03-13T18:39:31.245Z,33.07
2019-03-13T18:42:01.690Z,29.47
2019-03-13T18:44:32.160Z,28.20
2019-03-13T18:47:02.617Z,25.70
2019-03-13T18:49:33.046Z,35.47
2019-03-13T18:52:03.469Z,24.93
2019-03-13T18:54:33.998Z,29.97
2019-03-13T18:57:04.702Z,28.10
2019-03-13T18:59:37.990Z,33.13
2019-03-13T19:02:07.229Z,20.43
2019-03-13T19:04:37.654Z,16.87
2019-03-13T19:07:08.189Z,23.90
2019-03-13T19:09:38.672Z,18.73
2019-03-13T19:12:11.801Z,19.07
2019-03-13T19:14:41.218Z,28.63
2019-03-13T19:17:11.643Z,21.47
2019-03-13T19:19:42.059Z,28.27
2019-03-13T19:22:12.487Z,24.83
2019-03-13T19:24:43.174Z,19.57
2019-03-13T19:27:13.650Z,24.40
2019-03-13T19:29:44.076Z,18.00
2019-03-13T19:32:14.501Z,24.40
2019-03-13T19:34:44.939Z,22.30
2019-03-13T19:37:15.367Z,25.77
2019-03-13T19:39:45.841Z,19.90
2019-03-13T19:42:17.434Z,22.33
2019-03-13T19:44:48.181Z,20.50
2019-03-13T19:47:18.712Z,20.60
2019-03-13T19:49:49.138Z,26.30
2019-03-13T19:52:19.658Z,25.43
2019-03-13T19:54:50.102Z,34.63
2019-03-13T19:57:20.513Z,23.20
2019-03-13T19:59:50.964Z,22.43
2019-03-13T20:02:22.389Z,28.23
2019-03-13T20:04:52.827Z,27.63
2019-03-13T20:07:23.459Z,30.47
2019-03-13T20:09:53.885Z,22.77
2019-03-13T20:12:24.361Z,26.97
2019-03-13T20:14:54.853Z,24.40
2019-03-13T20:17:25.269Z,24.07
2019-03-13T20:19:55.699Z,28.73
2019-03-13T20:22:26.126Z,28.80
2019-03-13T20:24:56.923Z,25.10
2019-03-13T20:27:30.198Z,24.13
2019-03-13T20:30:00.669Z,23.03
2019-03-13T20:32:31.209Z,26.60
2019-03-13T20:35:01.640Z,21.60
2019-03-13T20:37:32.093Z,23.20
2019-03-13T20:40:02.798Z,22.30
2019-03-13T20:42:33.578Z,21.30
2019-03-13T20:45:04.370Z,25.30
2019-03-13T20:47:34.811Z,25.53
2019-03-13T20:50:07.923Z,26.97
2019-03-13T20:52:38.114Z,20.83
2019-03-13T20:55:09.345Z,25.90
2019-03-13T20:57:39.909Z,24.90
2019-03-13T21:00:12.483Z,22.70
2019-03-13T21:02:43.284Z,23.40
2019-03-13T21:05:15.932Z,27.03
2019-03-13T21:07:46.934Z,28.73
2019-03-13T21:10:17.455Z,31.47
2019-03-13T21:12:48.927Z,21.13
2019-03-13T21:15:19.496Z,18.10
2019-03-13T21:17:49.998Z,20.70
2019-03-13T21:20:20.908Z,25.30
2019-03-13T21:22:51.450Z,28.60
2019-03-13T21:25:22.121Z,20.10
2019-03-13T21:27:52.799Z,25.17
2019-03-13T21:30:24.308Z,30.13
2019-03-13T21:32:54.983Z,23.57
2019-03-13T21:35:25.894Z,30.47
2019-03-13T21:37:56.603Z,26.17
2019-03-13T21:40:27.191Z,22.17
2019-03-13T21:42:58.838Z,26.37
2019-03-13T21:45:40.343Z,21.67
2019-03-13T21:48:01.550Z,25.10
2019-03-13T21:50:31.926Z,29.10
2019-03-13T21:53:02.572Z,29.90
2019-03-13T21:55:33.026Z,31.10
2019-03-13T21:58:03.470Z,28.73
2019-03-13T22:00:33.987Z,24.20
2019-03-13T22:03:04.836Z,27.50
2019-03-13T22:05:35.443Z,24.50
2019-03-13T22:08:05.869Z,31.03
2019-03-13T22:10:36.316Z,27.97
2019-03-13T22:13:07.156Z,31.60
2019-03-13T22:15:37.769Z,32.30
2019-03-13T22:18:08.329Z,33.17
2019-03-13T22:20:39.438Z,21.97
2019-03-13T22:23:09.875Z,22.00
2019-03-13T22:25:40.709Z,30.40
2019-03-13T22:28:11.237Z,28.23
2019-03-13T22:30:41.758Z,20.73
2019-03-13T22:33:12.318Z,24.40
2019-03-13T22:35:42.956Z,20.90
2019-03-13T22:38:13.557Z,28.73
2019-03-13T22:40:43.982Z,24.27
2019-03-13T22:43:14.493Z,24.13
2019-03-13T22:45:45.845Z,21.87
2019-03-13T22:48:16.490Z,19.50
2019-03-13T22:50:47.062Z,20.53
2019-03-13T22:53:17.533Z,16.13
2019-03-13T22:55:47.970Z,23.50
2019-03-13T22:58:18.390Z,20.17
2019-03-13T23:00:58.458Z,19.70
2019-03-13T23:03:30.562Z,24.00
2019-03-13T23:06:01.442Z,28.53
2019-03-13T23:08:32.096Z,27.90
2019-03-13T23:11:02.609Z,26.30
2019-03-13T23:13:33.147Z,22.80
2019-03-13T23:16:03.588Z,26.00
2019-03-13T23:18:33.988Z,20.27
2019-03-13T23:21:04.517Z,26.73
2019-03-13T23:23:34.978Z,26.60
2019-03-13T23:26:06.041Z,20.17
2019-03-13T23:28:36.517Z,26.63
2019-03-13T23:31:06.945Z,22.73
2019-03-13T23:33:37.381Z,36.23
2019-03-13T23:36:07.797Z,26.23
2019-03-13T23:38:38.227Z,34.60
2019-03-13T23:41:08.641Z,26.47
2019-03-13T23:43:39.082Z,34.27
2019-03-13T23:46:09.505Z,33.57
2019-03-13T23:48:39.934Z,23.17
2019-03-13T23:51:10.473Z,36.33
2019-03-13T23:53:40.949Z,29.83
2019-03-13T23:56:11.425Z,34.03
2019-03-13T23:58:41.846Z,28.53
